sensor_id;sensor_type;location;lat;lon;timestamp;P1;durP1;ratioP1;P2;durP2;ratioP2
8058;SDS011;4072;42.668;23.396;2022-09-27T00:00:59;10.90;;;9.73;;
8058;SDS011;4072;42.668;23.396;2022-09-27T00:03:28;10.83;;;9.53;;
8058;SDS011;4072;42.668;23.396;2022-09-27T00:06:00;10.30;;;9.23;;
8058;SDS011;4072;42.668;23.396;2022-09-27T00:08:28;10.93;;;9.83;;
8058;SDS011;4072;42.668;23.396;2022-09-27T00:10:58;11.70;;;10.50;;
8058;SDS011;4072;42.668;23.396;2022-09-27T00:13:26;13.73;;;10.37;;
8058;SDS011;4072;42.668;23.396;2022-09-27T00:15:57;12.50;;;10.50;;
8058;SDS011;4072;42.668;23.396;2022-09-27T00:18:25;10.60;;;9.30;;
8058;SDS011;4072;42.668;23.396;2022-09-27T00:20:53;11.00;;;9.90;;
8058;SDS011;4072;42.668;23.396;2022-09-27T00:23:21;10.73;;;8.93;;
8058;SDS011;4072;42.668;23.396;2022-09-27T00:25:55;10.60;;;9.27;;
8058;SDS011;4072;42.668;23.396;2022-09-27T00:28:23;10.57;;;9.13;;
8058;SDS011;4072;42.668;23.396;2022-09-27T00:30:51;10.20;;;8.93;;
8058;SDS011;4072;42.668;23.396;2022-09-27T00:33:21;9.37;;;8.37;;
8058;SDS011;4072;42.668;23.396;2022-09-27T00:35:48;9.10;;;8.17;;
8058;SDS011;4072;42.668;23.396;2022-09-27T00:38:16;9.53;;;8.63;;
8058;SDS011;4072;42.668;23.396;2022-09-27T00:40:44;11.43;;;9.30;;
8058;SDS011;4072;42.668;23.396;2022-09-27T00:43:14;9.77;;;8.23;;
8058;SDS011;4072;42.668;23.396;2022-09-27T00:45:43;9.90;;;8.77;;
8058;SDS011;4072;42.668;23.396;2022-09-27T00:48:12;10.67;;;8.57;;
8058;SDS011;4072;42.668;23.396;2022-09-27T00:50:43;9.87;;;8.87;;
8058;SDS011;4072;42.668;23.396;2022-09-27T00:53:14;10.30;;;8.13;;
8058;SDS011;4072;42.668;23.396;2022-09-27T00:55:45;11.47;;;9.63;;
8058;SDS011;4072;42.668;23.396;2022-09-27T00:58:16;9.77;;;8.77;;
8058;SDS011;4072;42.668;23.396;2022-09-27T01:00:47;12.10;;;10.90;;
8058;SDS011;4072;42.668;23.396;2022-09-27T01:03:19;11.33;;;10.23;;
8058;SDS011;4072;42.668;23.396;2022-09-27T01:05:50;11.30;;;10.20;;
8058;SDS011;4072;42.668;23.396;2022-09-27T01:08:19;12.50;;;11.20;;
8058;SDS011;4072;42.668;23.396;2022-09-27T01:10:50;11.83;;;10.63;;
8058;SDS011;4072;42.668;23.396;2022-09-27T01:13:21;11.57;;;10.17;;
8058;SDS011;4072;42.668;23.396;2022-09-27T01:15:52;12.13;;;10.17;;
8058;SDS011;4072;42.668;23.396;2022-09-27T01:18:27;12.00;;;10.30;;
8058;SDS011;4072;42.668;23.396;2022-09-27T01:24:11;14.17;;;11.63;;
8058;SDS011;4072;42.668;23.396;2022-09-27T01:26:49;11.67;;;10.47;;
8058;SDS011;4072;42.668;23.396;2022-09-27T01:29:24;12.67;;;9.80;;
8058;SDS011;4072;42.668;23.396;2022-09-27T01:31:58;20.20;;;17.07;;
8058;SDS011;4072;42.668;23.396;2022-09-27T01:34:31;13.83;;;12.43;;
8058;SDS011;4072;42.668;23.396;2022-09-27T01:37:03;12.07;;;10.47;;
8058;SDS011;4072;42.668;23.396;2022-09-27T01:39:36;13.50;;;11.30;;
8058;SDS011;4072;42.668;23.396;2022-09-27T01:42:09;12.97;;;11.00;;
8058;SDS011;4072;42.668;23.396;2022-09-27T01:44:43;13.10;;;10.63;;
8058;SDS011;4072;42.668;23.396;2022-09-27T01:47:15;12.17;;;10.67;;
8058;SDS011;4072;42.668;23.396;2022-09-27T01:49:45;11.67;;;9.80;;
8058;SDS011;4072;42.668;23.396;2022-09-27T01:52:15;12.57;;;11.30;;
8058;SDS011;4072;42.668;23.396;2022-09-27T01:54:46;12.90;;;11.60;;
8058;SDS011;4072;42.668;23.396;2022-09-27T01:57:15;14.50;;;12.27;;
8058;SDS011;4072;42.668;23.396;2022-09-27T01:59:46;15.13;;;11.57;;
8058;SDS011;4072;42.668;23.396;2022-09-27T02:02:17;13.10;;;11.73;;
8058;SDS011;4072;42.668;23.396;2022-09-27T02:04:49;12.87;;;11.57;;
8058;SDS011;4072;42.668;23.396;2022-09-27T02:07:21;12.23;;;10.83;;
8058;SDS011;4072;42.668;23.396;2022-09-27T02:09:51;15.47;;;12.90;;
8058;SDS011;4072;42.668;23.396;2022-09-27T02:12:20;14.70;;;12.73;;
8058;SDS011;4072;42.668;23.396;2022-09-27T02:14:51;14.20;;;12.50;;
8058;SDS011;4072;42.668;23.396;2022-09-27T02:17:23;13.97;;;12.57;;
8058;SDS011;4072;42.668;23.396;2022-09-27T02:19:53;13.47;;;11.83;;
8058;SDS011;4072;42.668;23.396;2022-09-27T02:22:25;13.33;;;11.93;;
8058;SDS011;4072;42.668;23.396;2022-09-27T02:24:57;13.20;;;11.77;;
8058;SDS011;4072;42.668;23.396;2022-09-27T02:27:28;14.60;;;12.80;;
8058;SDS011;4072;42.668;23.396;2022-09-27T02:29:57;14.00;;;12.60;;
8058;SDS011;4072;42.668;23.396;2022-09-27T02:32:28;12.73;;;11.40;;
8058;SDS011;4072;42.668;23.396;2022-09-27T02:34:57;14.10;;;12.40;;
8058;SDS011;4072;42.668;23.396;2022-09-27T02:37:27;18.13;;;12.33;;
8058;SDS011;4072;42.668;23.396;2022-09-27T02:39:55;11.60;;;10.43;;
8058;SDS011;4072;42.668;23.396;2022-09-27T02:42:23;10.00;;;7.83;;
8058;SDS011;4072;42.668;23.396;2022-09-27T02:44:52;12.90;;;11.53;;
8058;SDS011;4072;42.668;23.396;2022-09-27T02:47:27;13.73;;;12.03;;
8058;SDS011;4072;42.668;23.396;2022-09-27T02:50:02;12.77;;;11.43;;
8058;SDS011;4072;42.668;23.396;2022-09-27T02:52:37;13.40;;;11.33;;
8058;SDS011;4072;42.668;23.396;2022-09-27T02:55:10;12.83;;;11.53;;
8058;SDS011;4072;42.668;23.396;2022-09-27T02:57:41;13.50;;;11.33;;
8058;SDS011;4072;42.668;23.396;2022-09-27T03:00:13;18.70;;;14.83;;
8058;SDS011;4072;42.668;23.396;2022-09-27T03:02:47;16.73;;;14.17;;
8058;SDS011;4072;42.668;23.396;2022-09-27T03:05:19;16.57;;;12.43;;
8058;SDS011;4072;42.668;23.396;2022-09-27T03:07:48;14.93;;;12.83;;
8058;SDS011;4072;42.668;23.396;2022-09-27T03:10:17;17.20;;;13.33;;
8058;SDS011;4072;42.668;23.396;2022-09-27T03:12:45;13.93;;;12.37;;
8058;SDS011;4072;42.668;23.396;2022-09-27T03:15:13;18.07;;;13.50;;
8058;SDS011;4072;42.668;23.396;2022-09-27T03:17:41;12.70;;;10.17;;
8058;SDS011;4072;42.668;23.396;2022-09-27T03:20:10;11.93;;;10.73;;
8058;SDS011;4072;42.668;23.396;2022-09-27T03:22:39;13.87;;;12.13;;
8058;SDS011;4072;42.668;23.396;2022-09-27T03:25:07;12.33;;;11.13;;
8058;SDS011;4072;42.668;23.396;2022-09-27T03:27:36;14.60;;;11.50;;
8058;SDS011;4072;42.668;23.396;2022-09-27T03:30:04;13.90;;;11.60;;
8058;SDS011;4072;42.668;23.396;2022-09-27T03:32:32;12.07;;;10.93;;
8058;SDS011;4072;42.668;23.396;2022-09-27T03:35:00;15.03;;;12.00;;
8058;SDS011;4072;42.668;23.396;2022-09-27T03:37:29;17.67;;;14.30;;
8058;SDS011;4072;42.668;23.396;2022-09-27T03:39:59;15.87;;;13.87;;
8058;SDS011;4072;42.668;23.396;2022-09-27T03:42:27;16.17;;;13.60;;
8058;SDS011;4072;42.668;23.396;2022-09-27T03:44:55;16.03;;;14.17;;
8058;SDS011;4072;42.668;23.396;2022-09-27T03:47:22;15.73;;;14.10;;
8058;SDS011;4072;42.668;23.396;2022-09-27T03:49:50;15.10;;;13.60;;
8058;SDS011;4072;42.668;23.396;2022-09-27T03:52:18;15.57;;;13.87;;
8058;SDS011;4072;42.668;23.396;2022-09-27T03:54:46;14.93;;;13.37;;
8058;SDS011;4072;42.668;23.396;2022-09-27T03:57:15;17.67;;;15.07;;
8058;SDS011;4072;42.668;23.396;2022-09-27T03:59:43;14.70;;;13.07;;
8058;SDS011;4072;42.668;23.396;2022-09-27T04:02:11;14.67;;;12.97;;
8058;SDS011;4072;42.668;23.396;2022-09-27T04:04:39;14.63;;;12.93;;
8058;SDS011;4072;42.668;23.396;2022-09-27T04:07:07;15.87;;;14.20;;
8058;SDS011;4072;42.668;23.396;2022-09-27T04:09:36;17.37;;;15.60;;
8058;SDS011;4072;42.668;23.396;2022-09-27T04:12:10;15.37;;;13.73;;
8058;SDS011;4072;42.668;23.396;2022-09-27T04:14:39;19.90;;;14.97;;
8058;SDS011;4072;42.668;23.396;2022-09-27T04:17:07;15.97;;;14.43;;
8058;SDS011;4072;42.668;23.396;2022-09-27T04:19:35;15.53;;;13.80;;
8058;SDS011;4072;42.668;23.396;2022-09-27T04:22:03;15.97;;;13.90;;
8058;SDS011;4072;42.668;23.396;2022-09-27T04:24:31;15.97;;;14.27;;
8058;SDS011;4072;42.668;23.396;2022-09-27T04:27:01;16.03;;;14.33;;
8058;SDS011;4072;42.668;23.396;2022-09-27T04:29:29;16.67;;;15.00;;
8058;SDS011;4072;42.668;23.396;2022-09-27T04:31:59;15.63;;;14.03;;
8058;SDS011;4072;42.668;23.396;2022-09-27T04:34:27;15.93;;;13.80;;
8058;SDS011;4072;42.668;23.396;2022-09-27T04:37:11;16.47;;;14.27;;
8058;SDS011;4072;42.668;23.396;2022-09-27T04:39:39;15.90;;;14.27;;
8058;SDS011;4072;42.668;23.396;2022-09-27T04:42:07;16.50;;;14.77;;
8058;SDS011;4072;42.668;23.396;2022-09-27T04:44:35;16.03;;;13.97;;
8058;SDS011;4072;42.668;23.396;2022-09-27T04:47:04;16.93;;;14.70;;
8058;SDS011;4072;42.668;23.396;2022-09-27T04:49:32;15.83;;;14.23;;
8058;SDS011;4072;42.668;23.396;2022-09-27T04:52:03;15.13;;;12.97;;
8058;SDS011;4072;42.668;23.396;2022-09-27T04:54:31;13.90;;;12.30;;
8058;SDS011;4072;42.668;23.396;2022-09-27T04:57:00;16.27;;;13.43;;
8058;SDS011;4072;42.668;23.396;2022-09-27T04:59:29;13.57;;;12.23;;
8058;SDS011;4072;42.668;23.396;2022-09-27T05:01:57;13.80;;;11.43;;
8058;SDS011;4072;42.668;23.396;2022-09-27T05:04:27;14.03;;;12.53;;
8058;SDS011;4072;42.668;23.396;2022-09-27T05:06:55;12.83;;;11.63;;
8058;SDS011;4072;42.668;23.396;2022-09-27T05:09:24;13.73;;;12.37;;
8058;SDS011;4072;42.668;23.396;2022-09-27T05:11:51;15.87;;;12.90;;
8058;SDS011;4072;42.668;23.396;2022-09-27T05:14:19;14.23;;;12.70;;
8058;SDS011;4072;42.668;23.396;2022-09-27T05:16:47;15.80;;;12.80;;
8058;SDS011;4072;42.668;23.396;2022-09-27T05:19:15;16.17;;;13.67;;
8058;SDS011;4072;42.668;23.396;2022-09-27T05:21:45;15.67;;;14.03;;
8058;SDS011;4072;42.668;23.396;2022-09-27T05:24:12;18.67;;;16.17;;
8058;SDS011;4072;42.668;23.396;2022-09-27T05:26:40;16.13;;;13.80;;
8058;SDS011;4072;42.668;23.396;2022-09-27T05:29:08;19.57;;;17.57;;
8058;SDS011;4072;42.668;23.396;2022-09-27T05:31:36;20.33;;;17.37;;
8058;SDS011;4072;42.668;23.396;2022-09-27T05:34:05;17.00;;;15.20;;
8058;SDS011;4072;42.668;23.396;2022-09-27T05:36:36;18.23;;;14.80;;
8058;SDS011;4072;42.668;23.396;2022-09-27T05:39:05;18.83;;;16.70;;
8058;SDS011;4072;42.668;23.396;2022-09-27T05:41:33;15.53;;;13.80;;
8058;SDS011;4072;42.668;23.396;2022-09-27T05:44:01;20.10;;;15.33;;
8058;SDS011;4072;42.668;23.396;2022-09-27T05:46:29;17.63;;;15.43;;
8058;SDS011;4072;42.668;23.396;2022-09-27T05:48:57;20.33;;;17.87;;
8058;SDS011;4072;42.668;23.396;2022-09-27T05:51:25;19.63;;;17.43;;
8058;SDS011;4072;42.668;23.396;2022-09-27T05:53:53;21.03;;;17.17;;
8058;SDS011;4072;42.668;23.396;2022-09-27T05:56:23;19.00;;;16.80;;
8058;SDS011;4072;42.668;23.396;2022-09-27T05:58:51;20.50;;;17.60;;
8058;SDS011;4072;42.668;23.396;2022-09-27T06:01:19;23.17;;;19.83;;
8058;SDS011;4072;42.668;23.396;2022-09-27T06:03:47;21.40;;;18.47;;
8058;SDS011;4072;42.668;23.396;2022-09-27T06:06:15;19.90;;;17.63;;
8058;SDS011;4072;42.668;23.396;2022-09-27T06:08:43;22.20;;;19.63;;
8058;SDS011;4072;42.668;23.396;2022-09-27T06:11:12;22.93;;;20.53;;
8058;SDS011;4072;42.668;23.396;2022-09-27T06:13:41;17.00;;;14.87;;
8058;SDS011;4072;42.668;23.396;2022-09-27T06:16:10;19.00;;;16.87;;
8058;SDS011;4072;42.668;23.396;2022-09-27T06:18:38;21.83;;;19.50;;
8058;SDS011;4072;42.668;23.396;2022-09-27T06:21:05;24.53;;;21.90;;
8058;SDS011;4072;42.668;23.396;2022-09-27T06:23:33;21.03;;;18.80;;
8058;SDS011;4072;42.668;23.396;2022-09-27T06:26:02;22.47;;;19.27;;
8058;SDS011;4072;42.668;23.396;2022-09-27T06:28:30;28.17;;;21.37;;
8058;SDS011;4072;42.668;23.396;2022-09-27T06:31:03;27.03;;;22.83;;
8058;SDS011;4072;42.668;23.396;2022-09-27T06:33:32;34.90;;;23.83;;
8058;SDS011;4072;42.668;23.396;2022-09-27T06:36:00;26.60;;;22.67;;
8058;SDS011;4072;42.668;23.396;2022-09-27T06:38:28;26.40;;;22.50;;
8058;SDS011;4072;42.668;23.396;2022-09-27T06:41:13;30.10;;;23.73;;
8058;SDS011;4072;42.668;23.396;2022-09-27T06:44:16;34.80;;;28.03;;
8058;SDS011;4072;42.668;23.396;2022-09-27T06:46:46;23.43;;;20.07;;
8058;SDS011;4072;42.668;23.396;2022-09-27T06:49:14;21.90;;;18.33;;
8058;SDS011;4072;42.668;23.396;2022-09-27T06:51:42;22.93;;;19.37;;
8058;SDS011;4072;42.668;23.396;2022-09-27T06:54:10;24.17;;;20.27;;
8058;SDS011;4072;42.668;23.396;2022-09-27T06:56:38;25.47;;;20.93;;
8058;SDS011;4072;42.668;23.396;2022-09-27T06:59:06;26.47;;;21.40;;
8058;SDS011;4072;42.668;23.396;2022-09-27T07:02:07;24.80;;;21.33;;
8058;SDS011;4072;42.668;23.396;2022-09-27T07:04:35;23.37;;;18.93;;
8058;SDS011;4072;42.668;23.396;2022-09-27T07:07:03;23.53;;;18.47;;
8058;SDS011;4072;42.668;23.396;2022-09-27T07:09:31;21.33;;;17.33;;
8058;SDS011;4072;42.668;23.396;2022-09-27T07:12:00;22.57;;;18.87;;
8058;SDS011;4072;42.668;23.396;2022-09-27T07:14:27;23.60;;;19.00;;
8058;SDS011;4072;42.668;23.396;2022-09-27T07:17:00;24.00;;;21.43;;
8058;SDS011;4072;42.668;23.396;2022-09-27T07:19:29;37.00;;;28.73;;
8058;SDS011;4072;42.668;23.396;2022-09-27T07:21:57;23.60;;;20.23;;
8058;SDS011;4072;42.668;23.396;2022-09-27T07:24:25;22.53;;;20.13;;
8058;SDS011;4072;42.668;23.396;2022-09-27T07:26:52;18.90;;;16.80;;
8058;SDS011;4072;42.668;23.396;2022-09-27T07:29:20;21.97;;;19.80;;
8058;SDS011;4072;42.668;23.396;2022-09-27T07:31:48;24.93;;;20.80;;
8058;SDS011;4072;42.668;23.396;2022-09-27T07:34:16;19.30;;;16.00;;
8058;SDS011;4072;42.668;23.396;2022-09-27T07:36:48;18.60;;;16.70;;
8058;SDS011;4072;42.668;23.396;2022-09-27T07:39:16;19.33;;;16.37;;
8058;SDS011;4072;42.668;23.396;2022-09-27T07:41:43;20.37;;;16.90;;
8058;SDS011;4072;42.668;23.396;2022-09-27T07:44:12;19.00;;;16.97;;
8058;SDS011;4072;42.668;23.396;2022-09-27T07:46:41;18.17;;;16.37;;
8058;SDS011;4072;42.668;23.396;2022-09-27T07:49:09;18.03;;;16.07;;
8058;SDS011;4072;42.668;23.396;2022-09-27T07:51:37;18.03;;;16.03;;
8058;SDS011;4072;42.668;23.396;2022-09-27T07:54:07;19.17;;;17.07;;
8058;SDS011;4072;42.668;23.396;2022-09-27T07:56:35;18.20;;;16.03;;
8058;SDS011;4072;42.668;23.396;2022-09-27T07:59:03;22.63;;;17.50;;
8058;SDS011;4072;42.668;23.396;2022-09-27T08:01:30;18.07;;;15.47;;
8058;SDS011;4072;42.668;23.396;2022-09-27T08:04:00;20.97;;;17.47;;
8058;SDS011;4072;42.668;23.396;2022-09-27T08:06:28;18.73;;;16.77;;
8058;SDS011;4072;42.668;23.396;2022-09-27T08:08:56;22.03;;;19.70;;
8058;SDS011;4072;42.668;23.396;2022-09-27T08:11:26;33.37;;;27.87;;
8058;SDS011;4072;42.668;23.396;2022-09-27T08:13:54;24.43;;;21.20;;
8058;SDS011;4072;42.668;23.396;2022-09-27T08:16:22;22.73;;;19.90;;
8058;SDS011;4072;42.668;23.396;2022-09-27T08:18:50;19.77;;;17.50;;
8058;SDS011;4072;42.668;23.396;2022-09-27T08:21:18;16.03;;;14.10;;
8058;SDS011;4072;42.668;23.396;2022-09-27T08:23:46;19.17;;;17.17;;
8058;SDS011;4072;42.668;23.396;2022-09-27T08:26:13;18.57;;;16.50;;
8058;SDS011;4072;42.668;23.396;2022-09-27T08:28:43;19.03;;;16.07;;
8058;SDS011;4072;42.668;23.396;2022-09-27T08:31:10;18.90;;;16.90;;
8058;SDS011;4072;42.668;23.396;2022-09-27T08:33:38;19.10;;;16.93;;
8058;SDS011;4072;42.668;23.396;2022-09-27T08:36:09;24.23;;;17.93;;
8058;SDS011;4072;42.668;23.396;2022-09-27T08:38:37;20.37;;;18.37;;
8058;SDS011;4072;42.668;23.396;2022-09-27T08:41:06;20.43;;;18.23;;
8058;SDS011;4072;42.668;23.396;2022-09-27T08:43:35;17.47;;;15.67;;
8058;SDS011;4072;42.668;23.396;2022-09-27T08:46:12;16.43;;;14.80;;
8058;SDS011;4072;42.668;23.396;2022-09-27T08:48:42;18.80;;;16.47;;
8058;SDS011;4072;42.668;23.396;2022-09-27T08:51:12;24.23;;;19.47;;
8058;SDS011;4072;42.668;23.396;2022-09-27T08:53:40;17.83;;;15.63;;
8058;SDS011;4072;42.668;23.396;2022-09-27T08:56:09;20.43;;;18.27;;
8058;SDS011;4072;42.668;23.396;2022-09-27T08:58:39;20.73;;;18.27;;
8058;SDS011;4072;42.668;23.396;2022-09-27T09:01:10;21.00;;;17.50;;
8058;SDS011;4072;42.668;23.396;2022-09-27T09:03:42;21.07;;;18.00;;
8058;SDS011;4072;42.668;23.396;2022-09-27T09:06:13;19.97;;;16.97;;
8058;SDS011;4072;42.668;23.396;2022-09-27T09:08:47;16.00;;;14.33;;
8058;SDS011;4072;42.668;23.396;2022-09-27T09:11:19;17.30;;;13.60;;
8058;SDS011;4072;42.668;23.396;2022-09-27T09:16:54;16.73;;;15.13;;
8058;SDS011;4072;42.668;23.396;2022-09-27T09:19:32;17.83;;;14.57;;
8058;SDS011;4072;42.668;23.396;2022-09-27T09:22:06;17.77;;;13.93;;
8058;SDS011;4072;42.668;23.396;2022-09-27T09:24:41;22.63;;;18.10;;
8058;SDS011;4072;42.668;23.396;2022-09-27T09:27:12;13.73;;;12.43;;
8058;SDS011;4072;42.668;23.396;2022-09-27T09:29:49;12.93;;;11.63;;
8058;SDS011;4072;42.668;23.396;2022-09-27T09:32:25;16.00;;;13.20;;
8058;SDS011;4072;42.668;23.396;2022-09-27T09:34:58;14.37;;;11.23;;
8058;SDS011;4072;42.668;23.396;2022-09-27T09:37:29;12.83;;;11.53;;
8058;SDS011;4072;42.668;23.396;2022-09-27T09:40:02;12.17;;;10.77;;
8058;SDS011;4072;42.668;23.396;2022-09-27T09:42:36;11.37;;;10.00;;
8058;SDS011;4072;42.668;23.396;2022-09-27T09:45:12;11.37;;;10.27;;
8058;SDS011;4072;42.668;23.396;2022-09-27T09:47:43;12.67;;;11.37;;
8058;SDS011;4072;42.668;23.396;2022-09-27T09:50:15;17.77;;;11.33;;
8058;SDS011;4072;42.668;23.396;2022-09-27T09:52:45;13.67;;;12.27;;
8058;SDS011;4072;42.668;23.396;2022-09-27T09:55:16;17.33;;;14.60;;
8058;SDS011;4072;42.668;23.396;2022-09-27T09:57:51;20.53;;;17.80;;
8058;SDS011;4072;42.668;23.396;2022-09-27T10:00:21;14.07;;;12.67;;
8058;SDS011;4072;42.668;23.396;2022-09-27T10:02:50;15.93;;;14.27;;
8058;SDS011;4072;42.668;23.396;2022-09-27T10:05:21;22.57;;;19.60;;
8058;SDS011;4072;42.668;23.396;2022-09-27T10:07:50;15.53;;;12.73;;
8058;SDS011;4072;42.668;23.396;2022-09-27T10:10:19;13.67;;;12.27;;
8058;SDS011;4072;42.668;23.396;2022-09-27T10:12:48;10.40;;;9.23;;
8058;SDS011;4072;42.668;23.396;2022-09-27T10:15:19;21.67;;;9.20;;
8058;SDS011;4072;42.668;23.396;2022-09-27T10:17:48;10.07;;;9.13;;
8058;SDS011;4072;42.668;23.396;2022-09-27T10:20:23;9.57;;;8.77;;
8058;SDS011;4072;42.668;23.396;2022-09-27T10:22:52;11.80;;;10.57;;
8058;SDS011;4072;42.668;23.396;2022-09-27T10:25:22;10.77;;;9.67;;
8058;SDS011;4072;42.668;23.396;2022-09-27T10:27:50;11.03;;;10.03;;
8058;SDS011;4072;42.668;23.396;2022-09-27T10:30:21;12.47;;;8.90;;
8058;SDS011;4072;42.668;23.396;2022-09-27T10:32:49;11.47;;;9.30;;
8058;SDS011;4072;42.668;23.396;2022-09-27T10:35:18;9.53;;;8.60;;
8058;SDS011;4072;42.668;23.396;2022-09-27T10:37:51;11.57;;;10.37;;
8058;SDS011;4072;42.668;23.396;2022-09-27T10:40:26;11.00;;;9.37;;
8058;SDS011;4072;42.668;23.396;2022-09-27T10:42:55;9.40;;;8.53;;
8058;SDS011;4072;42.668;23.396;2022-09-27T10:45:26;12.10;;;10.57;;
8058;SDS011;4072;42.668;23.396;2022-09-27T10:47:55;10.40;;;9.50;;
8058;SDS011;4072;42.668;23.396;2022-09-27T10:50:23;10.73;;;9.57;;
8058;SDS011;4072;42.668;23.396;2022-09-27T10:53:16;11.83;;;10.63;;
8058;SDS011;4072;42.668;23.396;2022-09-27T10:55:46;10.87;;;9.83;;
8058;SDS011;4072;42.668;23.396;2022-09-27T10:58:15;11.83;;;10.60;;
8058;SDS011;4072;42.668;23.396;2022-09-27T11:00:44;12.87;;;10.70;;
8058;SDS011;4072;42.668;23.396;2022-09-27T11:03:20;13.43;;;12.03;;
8058;SDS011;4072;42.668;23.396;2022-09-27T11:05:50;10.73;;;9.63;;
8058;SDS011;4072;42.668;23.396;2022-09-27T11:08:23;12.87;;;10.27;;
8058;SDS011;4072;42.668;23.396;2022-09-27T11:10:59;12.13;;;10.90;;
8058;SDS011;4072;42.668;23.396;2022-09-27T11:13:27;12.50;;;10.40;;
8058;SDS011;4072;42.668;23.396;2022-09-27T11:16:03;13.00;;;10.93;;
8058;SDS011;4072;42.668;23.396;2022-09-27T11:18:35;14.37;;;12.97;;
8058;SDS011;4072;42.668;23.396;2022-09-27T11:21:08;13.27;;;11.87;;
8058;SDS011;4072;42.668;23.396;2022-09-27T11:23:48;9.57;;;8.30;;
8058;SDS011;4072;42.668;23.396;2022-09-27T11:26:25;11.07;;;10.07;;
8058;SDS011;4072;42.668;23.396;2022-09-27T11:28:55;13.47;;;11.53;;
8058;SDS011;4072;42.668;23.396;2022-09-27T11:31:32;13.90;;;12.60;;
8058;SDS011;4072;42.668;23.396;2022-09-27T11:34:18;11.23;;;10.23;;
8058;SDS011;4072;42.668;23.396;2022-09-27T11:36:55;9.97;;;9.03;;
8058;SDS011;4072;42.668;23.396;2022-09-27T11:39:34;8.87;;;7.97;;
8058;SDS011;4072;42.668;23.396;2022-09-27T11:42:12;9.03;;;8.10;;
8058;SDS011;4072;42.668;23.396;2022-09-27T11:44:52;8.33;;;7.53;;
8058;SDS011;4072;42.668;23.396;2022-09-27T11:47:43;10.47;;;9.50;;
8058;SDS011;4072;42.668;23.396;2022-09-27T11:50:21;10.93;;;7.70;;
8058;SDS011;4072;42.668;23.396;2022-09-27T11:53:05;12.43;;;7.80;;
8058;SDS011;4072;42.668;23.396;2022-09-27T11:55:41;11.30;;;8.97;;
8058;SDS011;4072;42.668;23.396;2022-09-27T11:58:13;11.33;;;9.43;;
8058;SDS011;4072;42.668;23.396;2022-09-27T12:00:49;10.03;;;9.10;;
8058;SDS011;4072;42.668;23.396;2022-09-27T12:06:15;9.73;;;8.73;;
8058;SDS011;4072;42.668;23.396;2022-09-27T12:08:47;8.93;;;7.77;;
8058;SDS011;4072;42.668;23.396;2022-09-27T12:11:18;10.57;;;9.57;;
8058;SDS011;4072;42.668;23.396;2022-09-27T12:13:51;9.20;;;7.77;;
8058;SDS011;4072;42.668;23.396;2022-09-27T12:16:20;8.33;;;6.60;;
8058;SDS011;4072;42.668;23.396;2022-09-27T12:18:50;6.47;;;5.73;;
8058;SDS011;4072;42.668;23.396;2022-09-27T12:21:18;5.97;;;5.47;;
8058;SDS011;4072;42.668;23.396;2022-09-27T12:23:48;12.40;;;6.87;;
8058;SDS011;4072;42.668;23.396;2022-09-27T12:26:16;6.40;;;5.80;;
8058;SDS011;4072;42.668;23.396;2022-09-27T12:28:49;5.97;;;5.47;;
8058;SDS011;4072;42.668;23.396;2022-09-27T12:31:20;5.13;;;4.73;;
8058;SDS011;4072;42.668;23.396;2022-09-27T12:34:02;5.43;;;4.93;;
8058;SDS011;4072;42.668;23.396;2022-09-27T12:36:35;6.37;;;5.77;;
8058;SDS011;4072;42.668;23.396;2022-09-27T12:39:08;6.03;;;4.50;;
8058;SDS011;4072;42.668;23.396;2022-09-27T12:41:44;6.23;;;5.40;;
8058;SDS011;4072;42.668;23.396;2022-09-27T12:44:16;6.73;;;4.97;;
8058;SDS011;4072;42.668;23.396;2022-09-27T12:46:49;6.40;;;5.80;;
8058;SDS011;4072;42.668;23.396;2022-09-27T12:49:20;6.27;;;5.30;;
8058;SDS011;4072;42.668;23.396;2022-09-27T12:51:55;5.87;;;5.47;;
8058;SDS011;4072;42.668;23.396;2022-09-27T12:54:38;5.90;;;5.10;;
8058;SDS011;4072;42.668;23.396;2022-09-27T12:57:12;5.80;;;5.20;;
8058;SDS011;4072;42.668;23.396;2022-09-27T12:59:48;5.40;;;4.80;;
8058;SDS011;4072;42.668;23.396;2022-09-27T13:08:18;5.30;;;4.80;;
8058;SDS011;4072;42.668;23.396;2022-09-27T13:10:52;6.47;;;5.17;;
8058;SDS011;4072;42.668;23.396;2022-09-27T13:13:23;7.80;;;5.00;;
8058;SDS011;4072;42.668;23.396;2022-09-27T13:15:56;8.63;;;4.40;;
8058;SDS011;4072;42.668;23.396;2022-09-27T13:18:28;4.20;;;3.53;;
8058;SDS011;4072;42.668;23.396;2022-09-27T13:20:56;4.60;;;4.30;;
8058;SDS011;4072;42.668;23.396;2022-09-27T13:26:20;3.85;;;3.55;;
8058;SDS011;4072;42.668;23.396;2022-09-27T13:28:58;4.10;;;3.70;;
8058;SDS011;4072;42.668;23.396;2022-09-27T13:40:10;3.72;;;3.42;;
8058;SDS011;4072;42.668;23.396;2022-09-27T13:42:42;3.50;;;3.20;;
8058;SDS011;4072;42.668;23.396;2022-09-27T13:45:19;3.35;;;2.97;;
8058;SDS011;4072;42.668;23.396;2022-09-27T13:47:54;3.08;;;2.85;;
8058;SDS011;4072;42.668;23.396;2022-09-27T13:50:24;3.72;;;3.13;;
8058;SDS011;4072;42.668;23.396;2022-09-27T13:52:56;4.20;;;3.80;;
8058;SDS011;4072;42.668;23.396;2022-09-27T13:55:43;3.77;;;3.40;;
8058;SDS011;4072;42.668;23.396;2022-09-27T13:58:13;3.90;;;3.60;;
8058;SDS011;4072;42.668;23.396;2022-09-27T14:00:42;3.93;;;3.63;;
8058;SDS011;4072;42.668;23.396;2022-09-27T14:03:13;3.97;;;3.67;;
8058;SDS011;4072;42.668;23.396;2022-09-27T14:05:45;7.10;;;3.45;;
8058;SDS011;4072;42.668;23.396;2022-09-27T14:08:19;4.83;;;3.23;;
8058;SDS011;4072;42.668;23.396;2022-09-27T14:10:56;3.00;;;2.80;;
8058;SDS011;4072;42.668;23.396;2022-09-27T14:13:25;3.83;;;2.80;;
8058;SDS011;4072;42.668;23.396;2022-09-27T14:15:55;2.83;;;2.60;;
8058;SDS011;4072;42.668;23.396;2022-09-27T14:18:25;3.23;;;2.80;;
8058;SDS011;4072;42.668;23.396;2022-09-27T14:21:05;3.73;;;2.83;;
8058;SDS011;4072;42.668;23.396;2022-09-27T14:23:34;3.60;;;3.28;;
8058;SDS011;4072;42.668;23.396;2022-09-27T14:26:04;3.40;;;2.40;;
8058;SDS011;4072;42.668;23.396;2022-09-27T14:28:39;6.13;;;2.57;;
8058;SDS011;4072;42.668;23.396;2022-09-27T14:31:11;3.80;;;2.37;;
8058;SDS011;4072;42.668;23.396;2022-09-27T14:33:43;5.00;;;2.23;;
8058;SDS011;4072;42.668;23.396;2022-09-27T14:36:15;3.53;;;2.20;;
8058;SDS011;4072;42.668;23.396;2022-09-27T14:39:10;4.20;;;2.33;;
8058;SDS011;4072;42.668;23.396;2022-09-27T14:41:40;4.50;;;2.40;;
8058;SDS011;4072;42.668;23.396;2022-09-27T14:44:11;2.57;;;2.10;;
8058;SDS011;4072;42.668;23.396;2022-09-27T14:46:41;2.50;;;2.30;;
8058;SDS011;4072;42.668;23.396;2022-09-27T14:49:18;2.33;;;2.13;;
8058;SDS011;4072;42.668;23.396;2022-09-27T14:51:49;2.50;;;2.30;;
8058;SDS011;4072;42.668;23.396;2022-09-27T14:54:21;3.00;;;2.30;;
8058;SDS011;4072;42.668;23.396;2022-09-27T14:56:52;3.47;;;2.90;;
8058;SDS011;4072;42.668;23.396;2022-09-27T14:59:23;3.90;;;2.63;;
8058;SDS011;4072;42.668;23.396;2022-09-27T15:01:56;3.33;;;3.03;;
8058;SDS011;4072;42.668;23.396;2022-09-27T15:04:26;3.20;;;2.80;;
8058;SDS011;4072;42.668;23.396;2022-09-27T15:06:57;4.13;;;2.93;;
8058;SDS011;4072;42.668;23.396;2022-09-27T15:09:27;3.43;;;2.60;;
8058;SDS011;4072;42.668;23.396;2022-09-27T15:12:00;3.17;;;2.80;;
8058;SDS011;4072;42.668;23.396;2022-09-27T15:14:30;2.90;;;2.70;;
8058;SDS011;4072;42.668;23.396;2022-09-27T15:16:59;3.80;;;3.40;;
8058;SDS011;4072;42.668;23.396;2022-09-27T15:19:31;5.40;;;3.90;;
8058;SDS011;4072;42.668;23.396;2022-09-27T15:24:42;3.40;;;1.77;;
8058;SDS011;4072;42.668;23.396;2022-09-27T15:27:13;1.40;;;1.10;;
8058;SDS011;4072;42.668;23.396;2022-09-27T15:29:46;1.50;;;1.00;;
8058;SDS011;4072;42.668;23.396;2022-09-27T15:32:15;7.40;;;1.93;;
8058;SDS011;4072;42.668;23.396;2022-09-27T15:34:44;6.80;;;2.87;;